createdAt,value
2019-02-27T00:12:59.586Z,4.70
2019-02-27T00:43:03.432Z,4.50
2019-02-27T01:13:07.160Z,4.20
2019-02-27T01:43:10.832Z,3.90
2019-02-27T02:13:17.921Z,3.70
2019-02-27T02:43:30.630Z,3.50
2019-02-27T03:13:35.175Z,3.20
2019-02-27T03:43:47.757Z,3.00
2019-02-27T04:13:51.530Z,2.80
2019-02-27T04:43:55.647Z,2.60
2019-02-27T05:13:59.360Z,2.50
2019-02-27T05:44:03.117Z,2.40
2019-02-27T06:14:06.803Z,2.20
2019-02-27T06:44:10.514Z,1.90
2019-02-27T07:14:14.246Z,1.70
2019-02-27T07:44:17.961Z,2.00
2019-02-27T08:14:21.739Z,2.40
2019-02-27T08:44:25.478Z,2.70
2019-02-27T09:14:29.216Z,3.60
2019-02-27T09:44:36.398Z,4.40
2019-02-27T10:14:38.265Z,5.50
2019-02-27T10:44:41.961Z,7.10
2019-02-27T11:14:45.663Z,9.00
2019-02-27T11:44:50.195Z,11.10
2019-02-27T12:14:53.997Z,12.40
2019-02-27T12:44:58.001Z,13.70
2019-02-27T13:15:04.454Z,13.50
2019-02-27T13:45:12.660Z,13.90
2019-02-27T14:15:18.066Z,16.20
2019-02-27T14:45:23.547Z,15.80
2019-02-27T15:15:31.625Z,14.40
2019-02-27T15:45:35.374Z,14.20
2019-02-27T16:15:39.073Z,14.60
2019-02-27T16:45:42.858Z,13.30
2019-02-27T17:15:46.584Z,12.40
2019-02-27T17:45:50.337Z,11.90
2019-02-27T18:15:54.083Z,11.60
2019-02-27T18:45:57.821Z,11.10
2019-02-27T19:16:01.558Z,10.60
2019-02-27T19:46:06.993Z,10.10
2019-02-27T20:16:12.413Z,9.50
2019-02-27T20:46:16.151Z,9.20
2019-02-27T21:16:19.915Z,8.60
2019-02-27T21:46:23.904Z,8.40
2019-02-27T22:16:30.509Z,8.50
2019-02-27T22:46:32.972Z,7.90
2019-02-27T23:16:36.663Z,7.70
2019-02-27T23:46:48.770Z,7.40
